Time,TemperatureF,DewpointF,PressureIn,WindDirection,WindDirectionDegrees,WindSpeedMPH,WindSpeedGustMPH,Humidity,HourlyPrecipIn,Conditions,Clouds,dailyrainin,SoftwareType,DateUTC
2013-03-17 00:00:00,29.0,-99.9,29.85,NNW,342,14.0,16.0,-999,-99.99,,,-99.99,,2013-03-17 04:00:00,
2013-03-17 00:43:00,29.0,-99.9,29.85,NNW,342,14.0,16.0,-999,-99.99,,,-99.99,,2013-03-17 04:43:00,
2013-03-17 00:53:00,29.0,-99.9,29.85,NNW,342,14.0,16.0,-999,-99.99,,,-99.99,,2013-03-17 04:53:00,
2013-03-17 01:00:00,28.0,-99.9,29.86,NNW,336,13.0,17.0,-999,-99.99,,,-99.99,,2013-03-17 05:00:00,
2013-03-17 01:43:00,28.0,-99.9,29.86,NNW,336,13.0,17.0,-999,-99.99,,,-99.99,,2013-03-17 05:43:00,
2013-03-17 01:52:00,28.0,-99.9,29.86,NNW,336,13.0,17.0,-999,-99.99,,,-99.99,,2013-03-17 05:52:00,
2013-03-17 02:00:00,27.0,-99.9,29.86,North,353,11.0,13.0,-999,-99.99,,,-99.99,,2013-03-17 06:00:00,
2013-03-17 02:42:00,27.0,-99.9,29.86,North,353,11.0,13.0,-999,-99.99,,,-99.99,,2013-03-17 06:42:00,
2013-03-17 02:53:00,27.0,-99.9,29.86,North,353,11.0,13.0,-999,-99.99,,,-99.99,,2013-03-17 06:53:00,
2013-03-17 03:00:00,26.0,-99.9,29.86,North,354,10.0,13.0,-999,-99.99,,,-99.99,,2013-03-17 07:00:00,
2013-03-17 03:42:00,26.0,-99.9,29.86,North,354,10.0,13.0,-999,-99.99,,,-99.99,,2013-03-17 07:42:00,
2013-03-17 03:52:00,26.0,-99.9,29.86,North,354,10.0,13.0,-999,-99.99,,,-99.99,,2013-03-17 07:52:00,
2013-03-17 04:00:00,25.0,-99.9,29.86,NNW,345,9.0,13.0,-999,-99.99,,,-99.99,,2013-03-17 08:00:00,
2013-03-17 04:42:00,25.0,-99.9,29.86,NNW,345,9.0,13.0,-999,-99.99,,,-99.99,,2013-03-17 08:42:00,
2013-03-17 04:52:00,25.0,-99.9,29.86,NNW,345,9.0,13.0,-999,-99.99,,,-99.99,,2013-03-17 08:52:00,
2013-03-17 05:00:00,25.0,-99.9,29.88,NNW,336,9.0,13.0,-999,-99.99,,,-99.99,,2013-03-17 09:00:00,
2013-03-17 05:43:00,25.0,-99.9,29.88,NNW,336,9.0,13.0,-999,-99.99,,,-99.99,,2013-03-17 09:43:00,
2013-03-17 05:53:00,25.0,-99.9,29.88,NNW,336,9.0,13.0,-999,-99.99,,,-99.99,,2013-03-17 09:53:00,
2013-03-17 06:00:00,24.0,-99.9,29.90,NNW,336,11.0,14.0,-999,-99.99,,,-99.99,,2013-03-17 10:00:00,
2013-03-17 06:42:00,24.0,-99.9,29.90,NNW,336,11.0,14.0,-999,-99.99,,,-99.99,,2013-03-17 10:42:00,
2013-03-17 06:53:00,24.0,-99.9,29.90,NNW,336,11.0,14.0,-999,-99.99,,,-99.99,,2013-03-17 10:53:00,
2013-03-17 07:00:00,24.0,-99.9,29.90,NNW,341,9.0,11.0,-999,-99.99,,,-99.99,,2013-03-17 11:00:00,
2013-03-17 07:43:00,24.0,-99.9,29.90,NNW,341,9.0,11.0,-999,-99.99,,,-99.99,,2013-03-17 11:43:00,
2013-03-17 07:52:00,24.0,-99.9,29.90,NNW,341,9.0,11.0,-999,-99.99,,,-99.99,,2013-03-17 11:52:00,
2013-03-17 08:00:00,24.0,-99.9,29.91,NNW,329,9.0,12.0,-999,-99.99,,,-99.99,,2013-03-17 12:00:00,
2013-03-17 08:43:00,24.0,-99.9,29.91,NNW,329,9.0,12.0,-999,-99.99,,,-99.99,,2013-03-17 12:43:00,
2013-03-17 08:52:00,24.0,-99.9,29.91,NNW,329,9.0,12.0,-999,-99.99,,,-99.99,,2013-03-17 12:52:00,
2013-03-17 09:30:00,25.0,-99.9,29.95,WNW,300,27.0,30.0,-999,-99.99,,,-99.99,,2013-03-17 13:30:00,
2013-03-17 10:02:00,25.0,-99.9,29.95,WNW,300,27.0,30.0,-999,-99.99,,,-99.99,,2013-03-17 14:02:00,
2013-03-17 10:12:00,25.0,-99.9,29.95,WNW,300,27.0,30.0,-999,-99.99,,,-99.99,,2013-03-17 14:12:00,
2013-03-17 10:23:00,25.0,-99.9,29.95,WNW,300,27.0,30.0,-999,-99.99,,,-99.99,,2013-03-17 14:23:00,
2013-03-17 10:30:00,26.0,-99.9,29.94,NW,313,25.0,30.0,-999,-99.99,,,-99.99,,2013-03-17 14:30:00,
2013-03-17 10:43:00,25.0,-99.9,29.94,NW,305,26.0,30.0,-999,-99.99,,,-99.99,,2013-03-17 14:43:00,
2013-03-17 10:53:00,25.0,-99.9,29.94,NW,305,26.0,30.0,-999,-99.99,,,-99.99,,2013-03-17 14:53:00,
2013-03-17 11:00:00,27.0,-99.9,29.94,NW,315,26.0,29.0,-999,-99.99,,,-99.99,,2013-03-17 15:00:00,
2013-03-17 11:02:00,26.0,-99.9,29.94,NW,313,25.0,30.0,-999,-99.99,,,-99.99,,2013-03-17 15:02:00,
2013-03-17 11:12:00,26.0,-99.9,29.94,NW,313,25.0,30.0,-999,-99.99,,,-99.99,,2013-03-17 15:12:00,
2013-03-17 11:23:00,26.0,-99.9,29.94,NW,313,25.0,30.0,-999,-99.99,,,-99.99,,2013-03-17 15:23:00,
2013-03-17 11:43:00,27.0,-99.9,29.94,NW,315,26.0,29.0,-999,-99.99,,,-99.99,,2013-03-17 15:43:00,
2013-03-17 11:53:00,27.0,-99.9,29.94,NW,315,26.0,29.0,-999,-99.99,,,-99.99,,2013-03-17 15:53:00,
2013-03-17 12:30:00,29.0,-99.9,29.94,NW,312,24.0,29.0,-999,-99.99,,,-99.99,,2013-03-17 16:30:00,
2013-03-17 12:43:00,28.0,-99.9,29.95,NNW,331,13.0,19.0,-999,-99.99,,,-99.99,,2013-03-17 16:43:00,
2013-03-17 12:53:00,28.0,-99.9,29.95,NNW,331,13.0,19.0,-999,-99.99,,,-99.99,,2013-03-17 16:53:00,
2013-03-17 13:03:00,29.0,-99.9,29.94,NW,312,24.0,29.0,-999,-99.99,,,-99.99,,2013-03-17 17:03:00,
2013-03-17 13:12:00,29.0,-99.9,29.94,NW,312,24.0,29.0,-999,-99.99,,,-99.99,,2013-03-17 17:12:00,
2013-03-17 13:22:00,29.0,-99.9,29.94,NW,312,24.0,29.0,-999,-99.99,,,-99.99,,2013-03-17 17:22:00,
2013-03-17 13:30:00,29.0,-99.9,29.94,NW,315,29.0,40.0,-999,-99.99,,,-99.99,,2013-03-17 17:30:00,
2013-03-17 13:42:00,29.0,-99.9,29.95,NW,321,27.0,37.0,-999,-99.99,,,-99.99,,2013-03-17 17:42:00,
2013-03-17 13:53:00,29.0,-99.9,29.95,NW,321,27.0,37.0,-999,-99.99,,,-99.99,,2013-03-17 17:53:00,
2013-03-17 14:02:00,29.0,-99.9,29.94,NW,315,29.0,40.0,-999,-99.99,,,-99.99,,2013-03-17 18:02:00,
2013-03-17 14:13:00,29.0,-99.9,29.94,NW,315,29.0,40.0,-999,-99.99,,,-99.99,,2013-03-17 18:13:00,
2013-03-17 14:22:00,29.0,-99.9,29.94,NW,315,29.0,40.0,-999,-99.99,,,-99.99,,2013-03-17 18:22:00,
2013-03-17 14:30:00,29.0,-99.9,29.95,NW,325,25.0,36.0,-999,-99.99,,,-99.99,,2013-03-17 18:30:00,
2013-03-17 14:42:00,29.0,-99.9,29.94,NNW,332,24.0,37.0,-999,-99.99,,,-99.99,,2013-03-17 18:42:00,
2013-03-17 14:52:00,29.0,-99.9,29.94,NNW,332,24.0,37.0,-999,-99.99,,,-99.99,,2013-03-17 18:52:00,
2013-03-17 15:02:00,29.0,-99.9,29.95,NW,325,25.0,36.0,-999,-99.99,,,-99.99,,2013-03-17 19:02:00,
2013-03-17 15:12:00,29.0,-99.9,29.95,NW,325,25.0,36.0,-999,-99.99,,,-99.99,,2013-03-17 19:12:00,
2013-03-17 15:23:00,29.0,-99.9,29.95,NW,325,25.0,36.0,-999,-99.99,,,-99.99,,2013-03-17 19:23:00,
2013-03-17 15:30:00,28.0,-99.9,29.96,NW,304,26.0,37.0,-999,-99.99,,,-99.99,,2013-03-17 19:30:00,
2013-03-17 15:42:00,29.0,-99.9,29.96,NW,315,24.0,33.0,-999,-99.99,,,-99.99,,2013-03-17 19:42:00,
2013-03-17 15:53:00,29.0,-99.9,29.96,NW,315,24.0,33.0,-999,-99.99,,,-99.99,,2013-03-17 19:53:00,
2013-03-17 16:00:00,28.0,-99.9,29.97,NW,304,29.0,37.0,-999,-99.99,,,-99.99,,2013-03-17 20:00:00,
2013-03-17 16:02:00,28.0,-99.9,29.96,NW,304,26.0,37.0,-999,-99.99,,,-99.99,,2013-03-17 20:02:00,
2013-03-17 16:12:00,28.0,-99.9,29.96,NW,304,26.0,37.0,-999,-99.99,,,-99.99,,2013-03-17 20:12:00,
2013-03-17 16:23:00,28.0,-99.9,29.96,NW,304,26.0,37.0,-999,-99.99,,,-99.99,,2013-03-17 20:23:00,
2013-03-17 16:43:00,28.0,-99.9,29.97,NW,304,29.0,37.0,-999,-99.99,,,-99.99,,2013-03-17 20:43:00,
2013-03-17 16:52:00,28.0,-99.9,29.97,NW,304,29.0,37.0,-999,-99.99,,,-99.99,,2013-03-17 20:52:00,
2013-03-17 17:30:00,28.0,-99.9,30.02,NW,312,34.0,40.0,-999,-99.99,,,-99.99,,2013-03-17 21:30:00,
2013-03-17 17:43:00,28.0,-99.9,30.00,NW,308,32.0,39.0,-999,-99.99,,,-99.99,,2013-03-17 21:43:00,
2013-03-17 17:53:00,28.0,-99.9,30.00,NW,308,32.0,39.0,-999,-99.99,,,-99.99,,2013-03-17 21:53:00,
2013-03-17 18:03:00,28.0,-99.9,30.02,NW,312,34.0,40.0,-999,-99.99,,,-99.99,,2013-03-17 22:03:00,
2013-03-17 18:13:00,28.0,-99.9,30.02,NW,312,34.0,40.0,-999,-99.99,,,-99.99,,2013-03-17 22:13:00,
2013-03-17 18:23:00,28.0,-99.9,30.02,NW,312,34.0,40.0,-999,-99.99,,,-99.99,,2013-03-17 22:23:00,
2013-03-17 18:30:00,27.0,-99.9,30.06,NW,315,32.0,39.0,-999,-99.99,,,-99.99,,2013-03-17 22:30:00,
2013-03-17 18:42:00,28.0,-99.9,30.04,WNW,292,32.0,35.0,-999,-99.99,,,-99.99,,2013-03-17 22:42:00,
2013-03-17 18:53:00,28.0,-99.9,30.04,WNW,292,32.0,35.0,-999,-99.99,,,-99.99,,2013-03-17 22:53:00,
2013-03-17 19:03:00,27.0,-99.9,30.06,NW,315,32.0,39.0,-999,-99.99,,,-99.99,,2013-03-17 23:03:00,
2013-03-17 19:13:00,27.0,-99.9,30.06,NW,315,32.0,39.0,-999,-99.99,,,-99.99,,2013-03-17 23:13:00,
2013-03-17 19:23:00,27.0,-99.9,30.06,NW,315,32.0,39.0,-999,-99.99,,,-99.99,,2013-03-17 23:23:00,
2013-03-17 19:30:00,26.0,-99.9,30.11,NW,322,35.0,41.0,-999,-99.99,,,-99.99,,2013-03-17 23:30:00,
2013-03-17 19:43:00,27.0,-99.9,30.08,NW,326,38.0,45.0,-999,-99.99,,,-99.99,,2013-03-17 23:43:00,
2013-03-17 19:53:00,27.0,-99.9,30.08,NW,326,38.0,45.0,-999,-99.99,,,-99.99,,2013-03-17 23:53:00,
2013-03-17 20:04:00,26.0,-99.9,30.11,NW,322,35.0,41.0,-999,-99.99,,,-99.99,,2013-03-18 00:04:00,
2013-03-17 20:13:00,26.0,-99.9,30.11,NW,322,35.0,41.0,-999,-99.99,,,-99.99,,2013-03-18 00:13:00,
2013-03-17 20:22:00,26.0,-99.9,30.11,NW,322,35.0,41.0,-999,-99.99,,,-99.99,,2013-03-18 00:22:00,
2013-03-17 20:30:00,25.0,-99.9,30.16,NW,325,34.0,38.0,-999,-99.99,,,-99.99,,2013-03-18 00:30:00,
2013-03-17 20:42:00,26.0,-99.9,30.14,NW,316,35.0,42.0,-999,-99.99,,,-99.99,,2013-03-18 00:42:00,
2013-03-17 20:53:00,26.0,-99.9,30.14,NW,316,35.0,42.0,-999,-99.99,,,-99.99,,2013-03-18 00:53:00,
2013-03-17 21:02:00,25.0,-99.9,30.16,NW,325,34.0,38.0,-999,-99.99,,,-99.99,,2013-03-18 01:02:00,
2013-03-17 21:12:00,25.0,-99.9,30.16,NW,325,34.0,38.0,-999,-99.99,,,-99.99,,2013-03-18 01:12:00,
2013-03-17 21:22:00,25.0,-99.9,30.16,NW,325,34.0,38.0,-999,-99.99,,,-99.99,,2013-03-18 01:22:00,
2013-03-17 21:30:00,24.0,-99.9,30.21,NNW,344,24.0,29.0,-999,-99.99,,,-99.99,,2013-03-18 01:30:00,
2013-03-17 21:42:00,25.0,-99.9,30.18,NW,322,35.0,43.0,-999,-99.99,,,-99.99,,2013-03-18 01:42:00,
2013-03-17 21:52:00,25.0,-99.9,30.18,NW,322,35.0,43.0,-999,-99.99,,,-99.99,,2013-03-18 01:52:00,
2013-03-17 22:02:00,24.0,-99.9,30.21,NNW,344,24.0,29.0,-999,-99.99,,,-99.99,,2013-03-18 02:02:00,
2013-03-17 22:12:00,24.0,-99.9,30.21,NNW,344,24.0,29.0,-999,-99.99,,,-99.99,,2013-03-18 02:12:00,
2013-03-17 22:22:00,24.0,-99.9,30.21,NNW,344,24.0,29.0,-999,-99.99,,,-99.99,,2013-03-18 02:22:00,
2013-03-17 22:30:00,23.0,-99.9,30.24,NNW,341,26.0,34.0,-999,-99.99,,,-99.99,,2013-03-18 02:30:00,
2013-03-17 22:42:00,23.0,-99.9,30.23,NNW,342,21.0,25.0,-999,-99.99,,,-99.99,,2013-03-18 02:42:00,
2013-03-17 22:52:00,23.0,-99.9,30.23,NNW,342,21.0,25.0,-999,-99.99,,,-99.99,,2013-03-18 02:52:00,
2013-03-17 23:03:00,23.0,-99.9,30.24,NNW,341,26.0,34.0,-999,-99.99,,,-99.99,,2013-03-18 03:03:00,
2013-03-17 23:12:00,23.0,-99.9,30.24,NNW,341,26.0,34.0,-999,-99.99,,,-99.99,,2013-03-18 03:12:00,
2013-03-17 23:22:00,23.0,-99.9,30.24,NNW,341,26.0,34.0,-999,-99.99,,,-99.99,,2013-03-18 03:22:00,
2013-03-17 23:30:00,22.0,-99.9,30.26,NNW,335,28.0,34.0,-999,-99.99,,,-99.99,,2013-03-18 03:30:00,
2013-03-17 23:42:00,22.0,-99.9,30.25,NNW,338,29.0,34.0,-999,-99.99,,,-99.99,,2013-03-18 03:42:00,
2013-03-17 23:53:00,22.0,-99.9,30.25,NNW,338,29.0,34.0,-999,-99.99,,,-99.99,,2013-03-18 03:53:00,